createdAt,value
2024-05-09T00:01:51.138Z,148.00
2024-05-09T00:04:21.234Z,147.37
2024-05-09T00:06:53.849Z,148.77
2024-05-09T00:09:23.870Z,148.07
2024-05-09T00:11:54.599Z,148.00
2024-05-09T00:14:24.774Z,147.57
2024-05-09T00:16:54.841Z,147.50
2024-05-09T00:19:25.047Z,147.57
2024-05-09T00:21:57.729Z,147.77
2024-05-09T00:24:27.755Z,147.40
2024-05-09T00:26:57.753Z,147.70
2024-05-09T00:29:27.815Z,147.27
2024-05-09T00:31:57.936Z,147.10
2024-05-09T00:34:28.112Z,147.57
2024-05-09T00:37:00.851Z,147.50
2024-05-09T00:39:30.844Z,147.23
2024-05-09T00:42:01.024Z,147.27
2024-05-09T00:44:31.106Z,147.20
2024-05-09T00:47:01.294Z,146.80
2024-05-09T00:49:31.812Z,147.03
2024-05-09T00:52:05.210Z,146.97
2024-05-09T00:54:35.867Z,146.57
2024-05-09T00:57:07.510Z,147.30
2024-05-09T00:59:38.212Z,146.83
2024-05-09T01:02:09.824Z,147.20
2024-05-09T01:04:39.998Z,147.30
2024-05-09T01:07:15.565Z,146.73
2024-05-09T01:09:45.553Z,146.30
2024-05-09T01:12:16.381Z,147.40
2024-05-09T01:14:46.447Z,147.07
2024-05-09T01:17:17.124Z,146.63
2024-05-09T01:19:47.444Z,146.10
2024-05-09T01:22:20.136Z,147.47
2024-05-09T01:24:52.788Z,146.40
2024-05-09T01:27:22.786Z,146.67
2024-05-09T01:29:52.772Z,146.33
2024-05-09T01:32:22.972Z,146.57
2024-05-09T01:34:53.146Z,146.60
2024-05-09T01:37:23.165Z,146.67
2024-05-09T01:39:55.816Z,146.83
2024-05-09T01:42:25.830Z,146.63
2024-05-09T01:44:55.853Z,146.93
2024-05-09T01:47:26.147Z,146.73
2024-05-09T01:49:57.271Z,146.50
2024-05-09T01:52:27.386Z,145.70
2024-05-09T01:55:02.773Z,146.60
2024-05-09T01:57:34.742Z,147.17
2024-05-09T02:00:07.721Z,145.90
2024-05-09T02:02:40.599Z,145.57
2024-05-09T02:05:11.067Z,146.63
2024-05-09T02:07:41.173Z,146.27
2024-05-09T02:10:20.350Z,146.30
2024-05-09T02:12:53.604Z,146.33
2024-05-09T02:15:23.647Z,146.17
2024-05-09T02:17:53.880Z,146.37
2024-05-09T02:20:33.094Z,145.90
2024-05-09T02:23:07.028Z,144.80
2024-05-09T02:25:40.064Z,145.63
2024-05-09T02:28:10.344Z,145.80
2024-05-09T02:30:42.116Z,145.70
2024-05-09T02:33:14.414Z,146.00
2024-05-09T02:35:45.964Z,145.37
2024-05-09T02:38:13.734Z,145.77
2024-05-09T02:40:46.515Z,145.90
2024-05-09T02:43:13.970Z,145.70
2024-05-09T02:45:44.133Z,145.20
2024-05-09T02:48:13.289Z,146.50
2024-05-09T02:50:44.638Z,146.03
2024-05-09T02:53:12.630Z,146.10
2024-05-09T02:55:43.739Z,146.27
2024-05-09T02:58:13.854Z,146.50
2024-05-09T03:00:43.885Z,146.07
2024-05-09T03:03:14.090Z,145.93
2024-05-09T03:05:46.205Z,146.17
2024-05-09T03:08:14.374Z,145.03
2024-05-09T03:10:44.690Z,145.70
2024-05-09T03:13:16.070Z,145.57
2024-05-09T03:15:46.522Z,146.00
2024-05-09T03:18:14.235Z,146.27
2024-05-09T03:20:44.809Z,145.70
2024-05-09T03:23:15.018Z,145.40
2024-05-09T03:25:45.097Z,146.07
2024-05-09T03:28:15.173Z,146.27
2024-05-09T03:30:45.179Z,145.37
2024-05-09T03:33:15.286Z,145.83
2024-05-09T03:35:46.232Z,145.90
2024-05-09T03:38:16.669Z,145.47
2024-05-09T03:40:51.457Z,145.50
2024-05-09T03:43:24.827Z,145.33
2024-05-09T03:45:54.830Z,145.47
2024-05-09T03:48:22.408Z,145.33
2024-05-09T03:50:53.157Z,145.43
2024-05-09T03:53:21.012Z,145.20
2024-05-09T03:55:52.695Z,145.63
2024-05-09T03:58:22.707Z,145.50
2024-05-09T04:00:52.811Z,145.30
2024-05-09T04:03:20.557Z,145.80
2024-05-09T04:05:50.809Z,145.80
2024-05-09T04:08:18.918Z,145.13
2024-05-09T04:10:49.119Z,145.00
2024-05-09T04:13:16.646Z,145.67
2024-05-09T04:15:49.217Z,145.87
2024-05-09T04:18:17.805Z,145.73
2024-05-09T04:20:47.963Z,145.70
2024-05-09T04:23:15.489Z,145.77
2024-05-09T04:25:47.370Z,145.23
2024-05-09T04:28:15.058Z,145.30
2024-05-09T04:30:45.323Z,145.70
2024-05-09T04:33:19.820Z,145.17
2024-05-09T04:35:49.959Z,144.80
2024-05-09T04:38:17.450Z,144.87
2024-05-09T04:40:47.574Z,145.37
2024-05-09T04:43:15.878Z,145.00
2024-05-09T04:45:46.215Z,145.47
2024-05-09T04:48:16.987Z,145.23
2024-05-09T04:50:47.289Z,145.00
2024-05-09T04:53:16.832Z,145.00
2024-05-09T04:55:47.097Z,145.97
2024-05-09T04:58:14.520Z,146.67
2024-05-09T05:00:46.040Z,144.87
2024-05-09T05:03:16.921Z,146.00
2024-05-09T05:05:47.777Z,146.03
2024-05-09T05:08:17.164Z,145.63
2024-05-09T05:10:49.464Z,146.10
2024-05-09T05:13:20.252Z,145.27
2024-05-09T05:15:53.577Z,146.13
2024-05-09T05:18:24.378Z,145.90
2024-05-09T05:20:54.785Z,145.33
2024-05-09T05:23:23.270Z,145.60
2024-05-09T05:25:55.184Z,145.63
2024-05-09T05:28:23.200Z,145.73
2024-05-09T05:30:53.276Z,146.03
2024-05-09T05:33:23.740Z,146.30
2024-05-09T05:35:53.832Z,146.27
2024-05-09T05:38:27.240Z,146.67
2024-05-09T05:40:55.855Z,146.03
2024-05-09T05:43:25.976Z,146.47
2024-05-09T05:45:53.485Z,145.30
2024-05-09T05:48:26.290Z,145.90
2024-05-09T05:50:53.993Z,145.33
2024-05-09T05:53:24.134Z,145.57
2024-05-09T05:55:51.793Z,145.40
2024-05-09T05:58:22.530Z,146.33
2024-05-09T06:00:53.023Z,146.30
2024-05-09T06:03:25.739Z,145.80
2024-05-09T06:05:53.281Z,146.47
2024-05-09T06:08:24.707Z,145.90
2024-05-09T06:10:53.175Z,146.23
2024-05-09T06:13:23.221Z,145.97
2024-05-09T06:15:50.704Z,146.50
2024-05-09T06:18:20.961Z,146.23
2024-05-09T06:20:52.447Z,145.50
2024-05-09T06:23:22.700Z,145.53
2024-05-09T06:25:50.252Z,146.57
2024-05-09T06:28:20.280Z,146.30
2024-05-09T06:30:47.717Z,146.10
2024-05-09T06:33:18.030Z,146.73
2024-05-09T06:35:47.033Z,146.90
2024-05-09T06:38:19.771Z,147.03
2024-05-09T06:40:47.236Z,146.60
2024-05-09T06:43:19.479Z,146.40
2024-05-09T06:45:48.473Z,147.73
2024-05-09T06:48:22.082Z,147.23
2024-05-09T06:50:50.649Z,146.03
2024-05-09T06:53:25.353Z,147.13
2024-05-09T06:55:53.072Z,147.07
2024-05-09T06:58:23.138Z,146.40
2024-05-09T07:00:50.703Z,147.10
2024-05-09T07:03:21.090Z,147.10
2024-05-09T07:05:49.668Z,147.10
2024-05-09T07:08:20.201Z,147.20
2024-05-09T07:10:50.515Z,147.23
2024-05-09T07:13:20.675Z,147.30
2024-05-09T07:15:48.093Z,147.10
2024-05-09T07:18:20.089Z,147.77
2024-05-09T07:20:49.560Z,147.77
2024-05-09T07:23:21.363Z,148.00
2024-05-09T07:25:51.519Z,148.23
2024-05-09T07:28:23.512Z,148.73
2024-05-09T07:30:50.932Z,148.20
2024-05-09T07:33:23.119Z,148.70
2024-05-09T07:35:51.908Z,148.63
2024-05-09T07:38:22.261Z,147.73
2024-05-09T07:40:52.542Z,148.93
2024-05-09T07:43:22.636Z,148.27
2024-05-09T07:45:54.043Z,148.10
2024-05-09T07:50:00.075Z,148.93
2024-05-09T07:53:52.147Z,150.13
2024-05-09T07:56:26.045Z,151.07
2024-05-09T07:58:56.636Z,151.37
2024-05-09T08:01:26.435Z,151.43
2024-05-09T08:03:57.415Z,151.23
2024-05-09T08:06:25.516Z,151.13
2024-05-09T08:08:56.056Z,151.47
2024-05-09T08:11:26.866Z,152.77
2024-05-09T08:13:56.931Z,153.60
2024-05-09T08:16:24.494Z,153.07
2024-05-09T08:18:54.598Z,154.70
2024-05-09T08:21:22.054Z,154.27
2024-05-09T08:23:52.314Z,154.37
2024-05-09T08:26:19.792Z,154.67
2024-05-09T08:28:52.398Z,155.13
2024-05-09T08:31:19.935Z,154.23
2024-05-09T08:33:51.581Z,154.83
2024-05-09T08:36:20.055Z,155.37
2024-05-09T08:38:50.082Z,155.20
2024-05-09T08:41:17.501Z,155.27
2024-05-09T08:43:47.815Z,155.20
2024-05-09T08:46:18.695Z,154.97
2024-05-09T08:48:54.892Z,155.47
2024-05-09T08:51:26.168Z,154.83
2024-05-09T08:53:56.261Z,155.37
2024-05-09T08:56:28.162Z,154.60
2024-05-09T08:59:02.708Z,154.03
2024-05-09T09:01:33.368Z,154.17
2024-05-09T09:04:06.646Z,155.53
2024-05-09T09:06:35.900Z,155.00
2024-05-09T09:09:07.019Z,155.23
2024-05-09T09:11:34.534Z,154.67
2024-05-09T09:14:04.591Z,155.90
2024-05-09T09:16:35.888Z,155.40
2024-05-09T09:19:06.864Z,155.40
2024-05-09T09:21:35.022Z,155.77
2024-05-09T09:24:06.962Z,155.53
2024-05-09T09:26:35.526Z,154.90
2024-05-09T09:29:05.595Z,155.33
2024-05-09T09:31:37.292Z,155.00
2024-05-09T09:34:10.721Z,155.20
2024-05-09T09:36:41.243Z,155.03
2024-05-09T09:39:12.773Z,155.87
2024-05-09T09:41:43.388Z,154.77
2024-05-09T09:44:13.621Z,155.73
2024-05-09T09:46:45.273Z,155.37
2024-05-09T09:49:15.591Z,155.73
2024-05-09T09:51:44.807Z,154.50
2024-05-09T09:54:16.598Z,155.30
2024-05-09T09:56:48.361Z,155.10
2024-05-09T09:59:19.692Z,155.20
2024-05-09T10:01:49.865Z,155.07
2024-05-09T10:04:21.194Z,156.03
2024-05-09T10:06:52.578Z,155.80
2024-05-09T10:09:22.851Z,155.53
2024-05-09T10:11:58.018Z,155.13
2024-05-09T10:14:33.405Z,155.17
2024-05-09T10:17:07.280Z,155.10
2024-05-09T10:19:37.398Z,155.23
2024-05-09T10:22:05.983Z,155.37
2024-05-09T10:24:49.865Z,155.80
2024-05-09T10:27:25.701Z,155.47
2024-05-09T10:29:56.104Z,155.33
2024-05-09T10:32:27.967Z,155.83
2024-05-09T10:35:08.230Z,156.30
2024-05-09T10:37:36.163Z,155.47
2024-05-09T10:40:11.957Z,155.13
2024-05-09T10:42:45.288Z,155.73
2024-05-09T10:45:18.530Z,155.30
2024-05-09T10:47:48.719Z,156.17
2024-05-09T10:50:25.655Z,155.87
2024-05-09T10:52:56.446Z,156.20
2024-05-09T10:55:27.372Z,156.00
2024-05-09T10:57:54.926Z,155.60
2024-05-09T11:00:30.671Z,155.60
2024-05-09T11:03:06.239Z,155.83
2024-05-09T11:05:36.753Z,155.47
2024-05-09T11:08:05.003Z,155.77
2024-05-09T11:10:35.192Z,155.30
2024-05-09T11:13:02.776Z,155.47
2024-05-09T11:15:41.578Z,155.47
2024-05-09T11:18:24.925Z,155.83
2024-05-09T11:20:56.752Z,155.00
2024-05-09T11:23:26.171Z,155.80
2024-05-09T11:25:57.512Z,155.40
2024-05-09T11:28:28.149Z,155.53
2024-05-09T11:31:09.637Z,156.37
2024-05-09T11:33:43.491Z,155.73
2024-05-09T11:36:13.836Z,155.97
2024-05-09T11:38:41.270Z,156.10
2024-05-09T11:41:11.419Z,155.03
2024-05-09T11:43:38.825Z,155.27
2024-05-09T11:46:08.910Z,155.20
2024-05-09T11:48:36.622Z,155.03
2024-05-09T11:51:09.490Z,155.00
2024-05-09T11:53:36.908Z,155.20
2024-05-09T11:56:07.435Z,154.87
2024-05-09T11:58:37.345Z,154.97
2024-05-09T12:01:07.921Z,154.93
2024-05-09T12:03:37.741Z,155.03
2024-05-09T12:06:10.718Z,154.73
2024-05-09T12:08:38.811Z,155.77
2024-05-09T12:11:09.010Z,155.10
2024-05-09T12:13:36.648Z,155.17
2024-05-09T12:16:06.851Z,155.43
2024-05-09T12:18:34.382Z,155.80
2024-05-09T12:21:04.912Z,156.10
2024-05-09T12:23:34.945Z,155.13
2024-05-09T12:26:05.502Z,155.17
2024-05-09T12:28:33.030Z,154.97
2024-05-09T12:31:03.077Z,155.57
2024-05-09T12:33:30.665Z,155.00
2024-05-09T12:36:00.973Z,154.67
2024-05-09T12:38:28.417Z,155.53
2024-05-09T12:41:01.084Z,155.47
2024-05-09T12:43:28.581Z,154.00
2024-05-09T12:45:58.831Z,155.23
2024-05-09T12:48:26.380Z,155.30
2024-05-09T12:50:57.490Z,155.20
2024-05-09T12:53:24.978Z,155.30
2024-05-09T12:55:59.936Z,155.90
2024-05-09T12:58:32.320Z,155.53
2024-05-09T13:01:02.434Z,154.67
2024-05-09T13:03:30.036Z,155.27
2024-05-09T13:06:00.523Z,154.20
2024-05-09T13:08:28.002Z,155.90
2024-05-09T13:10:58.118Z,155.17
2024-05-09T13:13:26.054Z,154.73
2024-05-09T13:15:58.888Z,154.93
2024-05-09T13:18:26.465Z,154.87
2024-05-09T13:20:56.549Z,154.43
2024-05-09T13:23:23.998Z,155.07
2024-05-09T13:25:54.138Z,155.20
2024-05-09T13:28:22.680Z,154.40
2024-05-09T13:30:52.763Z,155.20
2024-05-09T13:33:23.111Z,154.87
2024-05-09T13:35:53.264Z,154.47
2024-05-09T13:38:23.710Z,154.73
2024-05-09T13:40:51.392Z,154.83
2024-05-09T13:43:22.034Z,155.10
2024-05-09T13:45:50.080Z,154.77
2024-05-09T13:48:20.474Z,155.57
2024-05-09T13:50:50.652Z,154.63
2024-05-09T13:53:20.677Z,155.40
2024-05-09T13:55:48.737Z,154.90
2024-05-09T13:58:18.885Z,154.20
2024-05-09T14:00:48.949Z,155.13
2024-05-09T14:03:21.301Z,154.40
2024-05-09T14:05:54.452Z,154.90
2024-05-09T14:08:23.065Z,155.03
2024-05-09T14:10:53.712Z,154.73
2024-05-09T14:13:21.394Z,153.77
2024-05-09T14:15:51.870Z,154.40
2024-05-09T14:18:19.737Z,155.00
2024-05-09T14:20:49.796Z,154.73
2024-05-09T14:23:20.486Z,154.47
2024-05-09T14:25:52.855Z,155.47
2024-05-09T14:28:21.023Z,155.03
2024-05-09T14:30:51.267Z,154.43
2024-05-09T14:33:23.534Z,155.30
2024-05-09T14:35:53.730Z,155.43
2024-05-09T14:38:23.898Z,154.60
2024-05-09T14:40:54.228Z,155.10
2024-05-09T14:43:22.176Z,154.70
2024-05-09T14:45:53.241Z,155.27
2024-05-09T14:48:21.140Z,154.73
2024-05-09T14:50:51.308Z,155.50
2024-05-09T14:53:18.731Z,154.70
2024-05-09T14:55:51.656Z,155.13
2024-05-09T14:58:19.710Z,155.60
2024-05-09T15:00:51.728Z,154.53
2024-05-09T15:03:20.818Z,155.43
2024-05-09T15:05:52.343Z,154.77
2024-05-09T15:08:20.396Z,155.03
2024-05-09T15:10:53.325Z,155.70
2024-05-09T15:13:21.599Z,155.17
2024-05-09T15:15:51.914Z,154.97
2024-05-09T15:18:19.853Z,155.50
2024-05-09T15:20:50.335Z,154.67
2024-05-09T15:23:18.028Z,155.37
2024-05-09T15:25:48.160Z,154.93
2024-05-09T15:28:18.832Z,155.53
2024-05-09T15:30:49.029Z,155.27
2024-05-09T15:33:16.542Z,154.73
2024-05-09T15:35:46.954Z,155.07
2024-05-09T15:38:15.690Z,155.37
2024-05-09T15:40:45.987Z,154.90
2024-05-09T15:43:13.738Z,155.33
2024-05-09T15:45:46.526Z,154.73
2024-05-09T15:48:14.565Z,155.10
2024-05-09T15:50:45.204Z,154.73
2024-05-09T15:53:13.845Z,155.00
2024-05-09T15:55:45.579Z,154.97
2024-05-09T15:58:13.452Z,155.37
2024-05-09T16:00:49.571Z,154.83
2024-05-09T16:03:21.072Z,154.27
2024-05-09T16:05:51.764Z,155.13
2024-05-09T16:08:19.374Z,154.97
2024-05-09T16:10:49.854Z,154.90
2024-05-09T16:13:18.028Z,154.53
2024-05-09T16:15:51.091Z,155.07
2024-05-09T16:18:19.602Z,155.00
2024-05-09T16:20:50.501Z,154.63
2024-05-09T16:23:18.168Z,155.30
2024-05-09T16:25:48.642Z,155.23
2024-05-09T16:28:16.922Z,155.27
2024-05-09T16:30:47.084Z,155.33
2024-05-09T16:33:20.727Z,155.13
2024-05-09T16:35:50.991Z,154.33
2024-05-09T16:38:18.639Z,154.97
2024-05-09T16:40:48.939Z,154.10
2024-05-09T16:43:16.883Z,155.20
2024-05-09T16:45:47.331Z,154.03
2024-05-09T16:48:17.584Z,154.40
2024-05-09T16:50:47.660Z,154.73
2024-05-09T16:53:15.151Z,154.60
2024-05-09T16:55:45.166Z,155.20
2024-05-09T16:58:13.209Z,154.33
2024-05-09T17:00:44.392Z,154.67
2024-05-09T17:03:14.971Z,154.23
2024-05-09T17:05:50.376Z,154.77
2024-05-09T17:08:18.545Z,154.90
2024-05-09T17:10:49.918Z,154.40
2024-05-09T17:13:21.106Z,154.17
2024-05-09T17:15:51.739Z,154.40
2024-05-09T17:18:21.969Z,154.53
2024-05-09T17:20:54.825Z,154.60
2024-05-09T17:23:22.438Z,154.93
2024-05-09T17:25:52.532Z,154.47
2024-05-09T17:28:20.354Z,154.37
2024-05-09T17:30:51.010Z,153.63
2024-05-09T17:33:18.706Z,154.50
2024-05-09T17:35:50.359Z,154.03
2024-05-09T17:38:23.256Z,154.13
2024-05-09T17:40:54.333Z,155.00
2024-05-09T17:43:22.114Z,154.90
2024-05-09T17:45:52.359Z,154.47
2024-05-09T17:48:20.063Z,153.73
2024-05-09T17:50:51.381Z,154.47
2024-05-09T17:53:21.584Z,154.13
2024-05-09T17:55:53.777Z,154.13
2024-05-09T17:58:21.496Z,154.03
2024-05-09T18:00:52.240Z,155.10
2024-05-09T18:03:19.960Z,154.07
2024-05-09T18:05:50.203Z,154.30
2024-05-09T18:08:17.779Z,153.80
2024-05-09T18:10:52.137Z,153.60
2024-05-09T18:13:20.971Z,153.90
2024-05-09T18:15:51.342Z,153.90
2024-05-09T18:18:18.912Z,153.47
2024-05-09T18:20:49.199Z,154.87
2024-05-09T18:23:18.690Z,154.27
2024-05-09T18:25:54.431Z,153.93
2024-05-09T18:28:22.490Z,154.37
2024-05-09T18:30:52.718Z,154.20
2024-05-09T18:33:20.699Z,154.43
2024-05-09T18:35:50.802Z,153.60
2024-05-09T18:38:19.111Z,154.10
2024-05-09T18:40:51.808Z,154.10
2024-05-09T18:43:26.204Z,154.00
2024-05-09T18:46:01.371Z,153.53
2024-05-09T18:48:28.898Z,152.63
2024-05-09T18:50:59.008Z,153.93
2024-05-09T18:53:29.088Z,153.73
2024-05-09T18:55:59.142Z,154.37
2024-05-09T18:58:29.140Z,153.50
2024-05-09T19:00:58.446Z,153.90
2024-05-09T19:03:30.115Z,153.50
2024-05-09T19:05:57.805Z,153.30
2024-05-09T19:08:28.382Z,152.83
2024-05-09T19:10:55.894Z,153.47
2024-05-09T19:13:28.846Z,153.83
2024-05-09T19:15:57.117Z,153.63
2024-05-09T19:18:27.239Z,152.80
2024-05-09T19:20:54.734Z,153.80
2024-05-09T19:23:24.839Z,152.87
2024-05-09T19:25:52.290Z,152.63
2024-05-09T19:28:22.439Z,152.63
2024-05-09T19:30:52.800Z,153.43
2024-05-09T19:33:22.933Z,153.03
2024-05-09T19:35:50.435Z,152.60
2024-05-09T19:38:20.922Z,152.77
2024-05-09T19:40:48.555Z,152.33
2024-05-09T19:43:18.983Z,151.83
2024-05-09T19:45:47.080Z,152.57
2024-05-09T19:48:19.886Z,153.00
2024-05-09T19:50:50.548Z,152.93
2024-05-09T19:53:22.256Z,152.67
2024-05-09T19:55:49.656Z,152.97
2024-05-09T19:58:20.679Z,152.77
2024-05-09T20:00:49.378Z,151.87
2024-05-09T20:03:22.112Z,151.70
2024-05-09T20:05:49.834Z,152.10
2024-05-09T20:08:19.867Z,152.03
2024-05-09T20:10:47.453Z,153.23
2024-05-09T20:13:17.623Z,152.80
2024-05-09T20:15:45.187Z,152.83
2024-05-09T20:18:15.334Z,151.80
2024-05-09T20:20:46.127Z,152.23
2024-05-09T20:23:17.192Z,151.60
2024-05-09T20:25:44.605Z,152.03
2024-05-09T20:28:14.844Z,151.97
2024-05-09T20:30:42.534Z,152.40
2024-05-09T20:33:13.992Z,152.23
2024-05-09T20:35:41.631Z,153.00
2024-05-09T20:38:14.243Z,152.23
2024-05-09T20:40:41.780Z,152.43
2024-05-09T20:43:12.054Z,151.83
2024-05-09T20:45:40.489Z,151.93
2024-05-09T20:48:12.044Z,152.27
2024-05-09T20:50:41.977Z,151.27
2024-05-09T20:53:15.825Z,151.87
2024-05-09T20:55:43.858Z,151.33
2024-05-09T20:58:14.586Z,152.57
2024-05-09T21:00:44.890Z,151.37
2024-05-09T21:03:17.883Z,152.40
2024-05-09T21:05:46.597Z,151.83
2024-05-09T21:08:19.805Z,151.37
2024-05-09T21:10:47.616Z,151.53
2024-05-09T21:13:17.895Z,150.97
2024-05-09T21:15:45.595Z,151.37
2024-05-09T21:18:15.785Z,151.87
2024-05-09T21:20:43.356Z,151.93
2024-05-09T21:23:13.358Z,151.87
2024-05-09T21:25:43.456Z,151.03
2024-05-09T21:28:14.865Z,151.73
2024-05-09T21:30:43.333Z,152.03
2024-05-09T21:33:15.194Z,151.67
2024-05-09T21:35:44.011Z,152.83
2024-05-09T21:38:15.031Z,151.77
2024-05-09T21:40:45.600Z,152.63
2024-05-09T21:43:15.786Z,152.03
2024-05-09T21:45:43.577Z,153.50
2024-05-09T21:48:15.589Z,152.50
2024-05-09T21:50:43.209Z,152.67
2024-05-09T21:53:13.934Z,153.73
2024-05-09T21:55:44.691Z,152.77
2024-05-09T21:58:15.119Z,152.27
2024-05-09T22:00:45.539Z,153.43
2024-05-09T22:03:17.152Z,151.93
2024-05-09T22:05:45.286Z,153.13
2024-05-09T22:08:15.627Z,153.60
2024-05-09T22:10:45.949Z,152.90
2024-05-09T22:13:16.835Z,153.27
2024-05-09T22:15:44.649Z,152.27
2024-05-09T22:18:14.906Z,153.73
2024-05-09T22:20:45.184Z,153.60
2024-05-09T22:23:17.151Z,153.40
2024-05-09T22:25:47.315Z,153.13
2024-05-09T22:28:18.504Z,153.57
2024-05-09T22:30:47.157Z,153.60
2024-05-09T22:33:18.124Z,154.10
2024-05-09T22:35:45.669Z,152.63
2024-05-09T22:38:15.752Z,153.00
2024-05-09T22:40:48.249Z,153.00
2024-05-09T22:43:24.889Z,153.60
2024-05-09T22:45:53.736Z,153.67
2024-05-09T22:48:24.512Z,153.77
2024-05-09T22:50:52.531Z,153.20
2024-05-09T22:53:25.258Z,152.13
2024-05-09T22:55:53.105Z,153.37
2024-05-09T22:58:26.062Z,153.47
2024-05-09T23:00:53.739Z,153.70
2024-05-09T23:03:24.052Z,153.80
2024-05-09T23:05:51.679Z,153.57
2024-05-09T23:08:21.707Z,153.63
2024-05-09T23:10:49.228Z,153.40
2024-05-09T23:13:19.623Z,153.33
2024-05-09T23:15:49.960Z,153.77
2024-05-09T23:18:20.172Z,152.60
2024-05-09T23:20:47.685Z,152.90
2024-05-09T23:23:17.755Z,153.37
2024-05-09T23:25:45.176Z,153.77
2024-05-09T23:28:15.646Z,153.07
2024-05-09T23:30:43.107Z,153.40
2024-05-09T23:33:16.182Z,153.77
2024-05-09T23:35:44.525Z,152.97
2024-05-09T23:38:15.066Z,153.50
2024-05-09T23:40:43.256Z,153.83
2024-05-09T23:43:14.172Z,153.13
2024-05-09T23:45:42.788Z,153.67
2024-05-09T23:48:15.772Z,152.97
2024-05-09T23:50:44.196Z,153.23
2024-05-09T23:53:14.492Z,153.70
2024-05-09T23:55:42.112Z,153.53
2024-05-09T23:58:12.461Z,153.50
